Aurelius, New York
Current Conditions -  °F | °C
As of 4:54 PM on Tuesday 21 Oct 2014 (Local Time) from KSYR Reporting Station
Drizzle Drizzle  
Wind Chill: 52°   Ceiling: 2600
Heat Index: 52°   Visibility: 5mi
Dew Point: 49°   Wind: 6mph
Humidity: 89%   Direction: 80°E
Pressure: 29.9"   Gusts: NA
Location:  42.9235°N, 76.5525°W
Report Text: KSYR 212054Z 08005KT 5SM -DZ BR FEW010 OVC026 11/09 A2990 RMK DZB27 SLP123 T01110093
Loading
Personal Weather Stations






























Interactive Weather Map New forecast layout! Learn more

10-Day Weather Forecast

Advertisements
Track Severe Weather on mobile